Time;durP1;ratioP1;P1;durP2;ratioP2;P2;SDS_P1;SDS_P2;PMS_P1;PMS_P2;Temp;Humidity;BMP_temperature;BMP_pressure;BME280_temperature;BME280_humidity;BME280_pressure;Samples;Min_cycle;Max_cycle;Signal;HPM_P1;HPM_P2
2022/10/02 00:01:00;;;;;;;32.58;5.55;;;;;;;12.45;100.00;101240.75;5030863;28;20235;-72
2022/10/02 00:03:31;;;;;;;31.60;5.85;;;;;;;12.46;100.00;101244.31;5032881;28;20064;-73
2022/10/02 00:06:11;;;;;;;28.13;5.65;;;;;;;12.50;100.00;101240.06;5027733;28;20401;-73
2022/10/02 00:08:40;;;;;;;30.90;5.57;;;;;;;12.48;100.00;101250.34;5012828;28;20030;-74
2022/10/02 00:11:43;;;;;;;25.83;5.63;;;;;;;12.49;100.00;101250.13;5011902;28;20029;-74
2022/10/02 00:14:12;;;;;;;29.88;5.72;;;;;;;12.48;100.00;101251.16;5012841;28;20061;-73
2022/10/02 00:16:54;;;;;;;27.70;6.05;;;;;;;12.49;100.00;101252.84;5033053;28;20021;-70
2022/10/02 00:19:19;;;;;;;27.40;5.63;;;;;;;12.47;100.00;101252.25;5032898;28;20075;-73
2022/10/02 00:22:00;;;;;;;25.88;5.43;;;;;;;12.51;100.00;101256.13;5032555;28;20050;-72
2022/10/02 00:24:44;;;;;;;29.60;4.72;;;;;;;12.48;100.00;101263.91;5026222;28;20489;-73
2022/10/02 00:27:32;;;;;;;32.95;6.00;;;;;;;12.53;100.00;101259.47;5044791;28;20116;-72
2022/10/02 00:30:01;;;;;;;33.42;5.80;;;;;;;12.50;100.00;101267.22;5012937;28;20018;-72
2022/10/02 00:32:45;;;;;;;29.08;5.70;;;;;;;12.53;100.00;101267.63;5010791;28;20029;-71
2022/10/02 00:35:54;;;;;;;35.50;6.05;;;;;;;12.52;100.00;101271.38;5012523;28;20369;-71
2022/10/02 00:38:26;;;;;;;36.88;6.20;;;;;;;12.52;100.00;101268.66;5013320;28;20029;-74
2022/10/02 00:41:18;;;;;;;28.55;5.40;;;;;;;12.56;100.00;101269.03;5011686;28;20420;-74
2022/10/02 00:44:08;;;;;;;29.67;5.70;;;;;;;12.54;100.00;101271.16;5011782;28;20036;-75
2022/10/02 00:46:45;;;;;;;37.42;5.75;;;;;;;12.54;100.00;101276.56;5013016;28;20084;-70
2022/10/02 00:49:36;;;;;;;28.77;5.93;;;;;;;12.55;100.00;101273.63;5012659;28;20048;-71
2022/10/02 00:52:26;;;;;;;30.80;5.55;;;;;;;12.56;100.00;101280.72;5012642;28;20454;-73
2022/10/02 00:54:54;;;;;;;33.42;7.30;;;;;;;12.55;100.00;101279.06;5026800;28;20112;-74
2022/10/02 00:57:38;;;;;;;32.95;6.05;;;;;;;12.56;100.00;101269.88;5012629;28;20034;-74
2022/10/02 01:00:20;;;;;;;35.63;5.82;;;;;;;12.56;100.00;101264.44;5012665;28;20295;-73
2022/10/02 01:03:09;;;;;;;27.05;5.30;;;;;;;12.57;100.00;101271.50;5010333;28;20030;-72
2022/10/02 01:05:35;;;;;;;30.30;4.95;;;;;;;12.57;100.00;101278.84;5012278;28;20029;-73
2022/10/02 01:08:01;;;;;;;28.77;5.68;;;;;;;12.58;100.00;101283.22;5017265;28;20017;-72
2022/10/02 01:10:27;;;;;;;28.20;6.05;;;;;;;12.59;100.00;101280.28;5031563;28;20029;-71
2022/10/02 01:12:54;;;;;;;25.95;5.05;;;;;;;12.62;100.00;101278.16;5045032;28;20010;-70
2022/10/02 01:15:26;;;;;;;32.60;5.45;;;;;;;12.61;100.00;101281.94;5042915;28;20037;-69
2022/10/02 01:17:52;;;;;;;;;;;;;;;12.68;100.00;101279.94;5014149;28;20033;-71
2022/10/02 01:20:29;;;;;;;28.85;5.80;;;;;;;12.65;100.00;101273.09;5027711;28;19909;-73
2022/10/02 01:23:15;;;;;;;35.33;5.78;;;;;;;12.62;100.00;101267.28;5014158;28;20041;-70
2022/10/02 01:25:41;;;;;;;29.45;5.43;;;;;;;12.64;100.00;101267.91;5018120;28;20148;-72
2022/10/02 01:28:07;;;;;;;35.25;5.80;;;;;;;12.64;100.00;101265.19;5027263;28;20029;-71
2022/10/02 01:30:37;;;;;;;31.50;5.75;;;;;;;12.67;100.00;101270.16;5010947;28;20025;-71
2022/10/02 01:33:03;;;;;;;37.92;5.75;;;;;;;12.67;100.00;101262.84;5012529;28;20100;-76
2022/10/02 01:35:32;;;;;;;33.95;5.95;;;;;;;12.68;100.00;101269.09;5010456;28;20029;-73
2022/10/02 01:38:02;;;;;;;36.67;5.70;;;;;;;12.69;100.00;101259.91;5012916;28;20025;-73
2022/10/02 01:40:32;;;;;;;31.20;5.18;;;;;;;12.70;100.00;101275.13;5011785;28;20033;-72
2022/10/02 01:43:02;;;;;;;39.42;6.57;;;;;;;12.71;100.00;101266.75;5012723;28;20026;-75
2022/10/02 01:45:52;;;;;;;34.88;5.80;;;;;;;12.73;100.00;101274.69;5025524;28;20126;-75
2022/10/02 01:48:20;;;;;;;39.40;5.75;;;;;;;12.74;100.00;101270.88;5035547;28;20021;-70
2022/10/02 01:50:48;;;;;;;34.67;6.22;;;;;;;12.71;100.00;101279.50;5034411;28;20022;-74
2022/10/02 01:53:54;;;;;;;34.58;5.70;;;;;;;12.79;100.00;101283.78;5035389;28;20030;-73
2022/10/02 01:56:43;;;;;;;32.60;5.25;;;;;;;12.75;100.00;101281.50;5015962;28;20076;-72
2022/10/02 01:59:22;;;;;;;33.50;5.63;;;;;;;12.74;100.00;101273.59;5014519;28;20045;-71
2022/10/02 02:02:03;;;;;;;35.50;6.18;;;;;;;12.74;100.00;101273.59;5024766;28;20065;-73
2022/10/02 02:04:38;;;;;;;35.58;6.90;;;;;;;12.73;100.00;101278.22;5032099;28;20018;-73
2022/10/02 02:07:24;;;;;;;38.70;6.28;;;;;;;12.75;100.00;101283.41;5015176;28;20041;-71
2022/10/02 02:09:57;;;;;;;31.92;6.60;;;;;;;12.78;100.00;101274.81;5015690;28;20088;-74
2022/10/02 02:12:37;;;;;;;31.00;5.97;;;;;;;12.76;100.00;101274.22;5015420;28;20109;-74
2022/10/02 02:15:08;;;;;;;31.13;5.70;;;;;;;12.78;100.00;101266.66;5014787;28;20464;-71
2022/10/02 02:17:44;;;;;;;35.67;6.22;;;;;;;12.81;100.00;101282.50;5014523;28;20077;-71
2022/10/02 02:20:19;;;;;;;36.33;6.20;;;;;;;12.80;100.00;101272.69;5014043;28;20041;-71
2022/10/02 02:22:49;;;;;;;30.17;5.05;;;;;;;12.83;100.00;101282.25;5015269;28;20037;-76
2022/10/02 02:25:17;;;;;;;33.78;5.60;;;;;;;12.81;100.00;101285.22;5023116;28;20037;-72
2022/10/02 02:27:56;;;;;;;33.25;5.50;;;;;;;12.86;100.00;101284.53;5014417;28;20040;-76
2022/10/02 02:30:23;;;;;;;33.83;6.10;;;;;;;12.88;100.00;101285.13;5014726;28;20022;-71
2022/10/02 02:32:55;;;;;;;32.03;5.97;;;;;;;12.90;100.00;101283.00;5014916;28;20022;-73
2022/10/02 02:35:26;;;;;;;26.23;5.07;;;;;;;12.92;100.00;101287.16;5014111;28;20029;-69
2022/10/02 02:37:58;;;;;;;24.73;4.60;;;;;;;12.98;100.00;101281.84;5014859;28;20105;-73
2022/10/02 02:40:29;;;;;;;31.50;5.07;;;;;;;12.99;100.00;101291.69;5013900;28;20057;-71
2022/10/02 02:43:06;;;;;;;25.80;5.47;;;;;;;12.99;100.00;101286.25;5015032;28;20034;-75
2022/10/02 02:45:46;;;;;;;26.67;4.43;;;;;;;12.98;100.00;101276.41;5023992;28;20390;-74
2022/10/02 02:48:38;;;;;;;19.23;3.58;;;;;;;12.98;100.00;101279.13;5033388;28;20022;-72
2022/10/02 02:51:14;;;;;;;21.88;4.18;;;;;;;12.89;100.00;101284.06;5034710;28;20052;-71
2022/10/02 02:53:52;;;;;;;19.08;4.00;;;;;;;12.84;100.00;101284.75;5033309;28;20022;-73
2022/10/02 02:56:19;;;;;;;13.75;3.00;;;;;;;12.77;100.00;101282.13;5016419;28;20033;-72
2022/10/02 02:58:53;;;;;;;13.15;3.17;;;;;;;12.77;100.00;101294.88;5014792;28;20034;-74
2022/10/02 03:01:18;;;;;;;15.07;3.50;;;;;;;12.69;100.00;101295.19;5010813;28;20058;-73
2022/10/02 03:03:44;;;;;;;16.20;3.25;;;;;;;12.65;100.00;101286.69;5014736;28;20416;-71
2022/10/02 03:06:15;;;;;;;14.45;3.05;;;;;;;12.62;100.00;101287.16;5014129;28;20618;-72
2022/10/02 03:08:42;;;;;;;12.32;2.90;;;;;;;12.56;100.00;101294.31;5021898;28;20456;-70
2022/10/02 03:11:19;;;;;;;10.45;2.95;;;;;;;12.53;100.00;101288.47;5034387;28;20033;-74
2022/10/02 03:14:05;;;;;;;11.60;2.80;;;;;;;12.51;100.00;101290.59;5034369;28;20051;-73
2022/10/02 03:16:59;;;;;;;13.32;2.70;;;;;;;12.49;100.00;101290.00;5032681;28;20032;-71
2022/10/02 03:19:27;;;;;;;11.43;2.45;;;;;;;12.45;100.00;101297.75;5033810;28;20543;-73
2022/10/02 03:22:19;;;;;;;11.10;2.72;;;;;;;12.41;100.00;101289.25;5032502;28;20107;-71
2022/10/02 03:25:06;;;;;;;11.43;2.15;;;;;;;12.43;100.00;101299.88;5030028;28;20048;-72
2022/10/02 03:27:37;;;;;;;11.48;2.25;;;;;;;12.39;100.00;101291.38;5033683;28;20279;-72
2022/10/02 03:30:08;;;;;;;8.73;2.40;;;;;;;12.40;100.00;101297.63;5033932;28;20361;-74
2022/10/02 03:32:36;;;;;;;8.90;2.47;;;;;;;12.38;100.00;101286.19;5032296;28;20120;-70
2022/10/02 03:35:05;;;;;;;9.25;2.60;;;;;;;12.37;100.00;101288.03;5028910;28;20033;-69
2022/10/02 03:37:31;;;;;;;10.25;2.67;;;;;;;12.35;100.00;101289.31;5015191;28;21992;-74
2022/10/02 03:40:00;;;;;;;10.73;2.70;;;;;;;12.37;100.00;101288.03;5026822;28;20469;-71
2022/10/02 03:42:29;;;;;;;7.18;2.60;;;;;;;12.37;100.00;101298.06;5013757;28;20026;-71
2022/10/02 03:44:54;;;;;;;13.23;3.20;;;;;;;12.38;100.00;101294.31;5012003;28;20079;-71
2022/10/02 03:47:20;;;;;;;13.23;3.42;;;;;;;12.35;100.00;101317.31;5013251;28;20026;-71
2022/10/02 03:49:45;;;;;;;14.13;3.63;;;;;;;12.32;100.00;101316.91;5013482;28;20409;-70
2022/10/02 03:52:21;;;;;;;10.82;3.38;;;;;;;12.32;100.00;101317.75;5013708;28;20021;-71
2022/10/02 03:54:52;;;;;;;17.38;4.75;;;;;;;12.36;100.00;101318.13;5016800;28;20056;-70
2022/10/02 03:57:21;;;;;;;16.13;5.25;;;;;;;12.47;100.00;101316.53;5013119;28;20033;-73
2022/10/02 04:00:11;;;;;;;18.40;7.00;;;;;;;12.49;100.00;101317.97;5013671;28;20053;-74
2022/10/02 04:02:38;;;;;;;19.42;7.13;;;;;;;12.53;100.00;101310.19;5010658;28;20018;-74
2022/10/02 04:05:24;;;;;;;21.15;7.53;;;;;;;12.55;100.00;101310.81;5013259;28;20044;-74
2022/10/02 04:07:55;;;;;;;21.67;8.50;;;;;;;12.54;100.00;101301.00;5013466;28;20022;-75
2022/10/02 04:10:35;;;;;;;21.95;8.95;;;;;;;12.60;100.00;101310.97;5013171;28;20025;-73
2022/10/02 04:13:31;;;;;;;22.70;8.63;;;;;;;12.57;100.00;101309.50;5034522;28;20037;-70
2022/10/02 04:16:09;;;;;;;25.67;9.10;;;;;;;12.54;100.00;101304.53;5024465;28;20041;-73
2022/10/02 04:18:56;;;;;;;22.75;8.60;;;;;;;12.56;100.00;101318.75;5012896;28;20014;-72
2022/10/02 04:21:54;;;;;;;20.05;7.80;;;;;;;12.55;100.00;101305.38;5012657;28;20513;-71
2022/10/02 04:24:50;;;;;;;22.92;7.93;;;;;;;12.55;100.00;101313.53;5001933;28;20584;-72
2022/10/02 04:27:31;;;;;;;19.08;7.75;;;;;;;12.55;100.00;101310.81;5019741;28;20379;-72
2022/10/02 04:30:01;;;;;;;21.40;7.53;;;;;;;12.54;100.00;101309.97;5033216;28;20057;-71
2022/10/02 04:32:32;;;;;;;19.13;8.18;;;;;;;12.53;100.00;101316.47;5032652;28;20284;-71
2022/10/02 04:34:58;;;;;;;21.42;8.27;;;;;;;12.53;100.00;101311.06;5029976;28;20021;-74
2022/10/02 04:37:51;;;;;;;24.70;8.15;;;;;;;12.55;100.00;101299.97;5028496;28;20500;-73
2022/10/02 04:40:54;;;;;;;25.83;8.73;;;;;;;12.57;100.00;101309.50;5020328;28;20033;-71
2022/10/02 04:43:53;;;;;;;25.23;9.13;;;;;;;12.62;100.00;101316.16;5026412;28;20093;-70
2022/10/02 04:46:31;;;;;;;29.38;11.10;;;;;;;12.65;100.00;101321.97;5012729;28;20021;-74
2022/10/02 04:49:13;;;;;;;27.98;12.20;;;;;;;12.66;100.00;101330.94;5012852;28;20022;-73
2022/10/02 04:51:47;;;;;;;29.48;13.27;;;;;;;12.68;100.00;101328.81;5012583;28;20531;-73
2022/10/02 04:54:31;;;;;;;35.90;15.73;;;;;;;12.70;100.00;101335.69;5011573;28;20038;-74
2022/10/02 04:57:41;;;;;;;37.08;16.73;;;;;;;12.72;100.00;101341.72;5028227;28;20479;-72
2022/10/02 05:00:18;;;;;;;31.38;15.35;;;;;;;12.73;100.00;101337.94;5012999;28;20101;-72
2022/10/02 05:03:06;;;;;;;34.53;15.50;;;;;;;12.76;100.00;101344.81;5029652;28;20621;-72
2022/10/02 05:05:44;;;;;;;33.55;13.73;;;;;;;12.82;100.00;101333.06;5020730;28;20022;-73
2022/10/02 05:08:41;;;;;;;30.42;13.50;;;;;;;12.86;100.00;101347.00;5022768;28;20433;-73
2022/10/02 05:11:30;;;;;;;39.15;14.73;;;;;;;12.88;100.00;101348.44;5032357;28;20128;-72
2022/10/02 05:14:17;;;;;;;40.00;15.75;;;;;;;12.91;100.00;101347.16;5031357;28;20025;-75
2022/10/02 05:17:06;;;;;;;42.40;17.20;;;;;;;12.93;100.00;101345.03;5015036;28;20034;-74
2022/10/02 05:19:49;;;;;;;36.20;16.35;;;;;;;12.91;100.00;101342.53;5015364;28;20083;-75
2022/10/02 05:22:44;;;;;;;38.83;17.02;;;;;;;12.92;100.00;101337.94;5016226;28;20046;-74
2022/10/02 05:25:16;;;;;;;41.10;17.10;;;;;;;12.90;100.00;101348.19;5015994;28;20481;-72
2022/10/02 05:28:05;;;;;;;39.80;18.05;;;;;;;12.90;100.00;101356.34;5018619;28;20699;-75
2022/10/02 05:31:02;;;;;;;44.15;18.15;;;;;;;12.88;100.00;101359.28;5035564;28;20087;-73
2022/10/02 05:34:06;;;;;;;39.78;17.45;;;;;;;12.87;100.00;101360.34;5035933;28;20104;-74
2022/10/02 05:37:01;;;;;;;36.20;17.08;;;;;;;12.86;100.00;101366.84;5008763;28;20045;-73
2022/10/02 05:39:32;;;;;;;37.70;15.63;;;;;;;12.86;100.00;101363.28;5014874;28;20049;-74
2022/10/02 05:42:29;;;;;;;35.08;14.73;;;;;;;12.86;100.00;101372.28;5016282;28;20052;-76
2022/10/02 05:45:23;;;;;;;44.22;16.15;;;;;;;12.88;100.00;101369.34;5008050;28;20033;-72
2022/10/02 05:47:52;;;;;;;41.35;14.30;;;;;;;12.86;100.00;101366.84;5010485;28;20030;-71
2022/10/02 05:50:22;;;;;;;40.10;12.32;;;;;;;12.84;100.00;101366.22;5014286;28;20088;-76
2022/10/02 05:52:59;;;;;;;38.15;12.38;;;;;;;12.85;100.00;101367.06;5012538;28;20584;-71
2022/10/02 05:55:31;;;;;;;32.90;10.55;;;;;;;12.87;100.00;101373.91;5020814;28;20025;-73
2022/10/02 05:58:18;;;;;;;34.30;10.45;;;;;;;12.86;100.00;101369.56;5030305;28;20160;-76
2022/10/02 06:01:21;;;;;;;39.45;10.02;;;;;;;12.87;100.00;101371.22;5045022;28;20517;-72
2022/10/02 06:03:54;;;;;;;33.38;9.73;;;;;;;12.89;100.00;101371.81;5013603;28;20033;-74
2022/10/02 06:06:31;;;;;;;35.75;9.45;;;;;;;12.90;100.00;101367.22;5028019;28;20022;-74
2022/10/02 06:09:03;;;;;;;35.50;8.68;;;;;;;12.90;100.00;101373.47;5035685;28;20500;-75
2022/10/02 06:11:39;;;;;;;29.38;7.40;;;;;;;12.91;100.00;101377.84;5033363;28;20098;-72
2022/10/02 06:14:18;;;;;;;36.60;8.25;;;;;;;12.91;100.00;101383.28;5015257;28;20037;-75
2022/10/02 06:17:24;;;;;;;34.50;7.93;;;;;;;12.92;100.00;101393.09;5015237;28;20037;-73
2022/10/02 06:20:01;;;;;;;35.53;8.05;;;;;;;12.89;100.00;101388.13;5015023;28;20519;-73
2022/10/02 06:22:40;;;;;;;36.53;7.68;;;;;;;12.92;100.00;101395.81;5015228;28;20462;-72
2022/10/02 06:25:24;;;;;;;41.83;8.02;;;;;;;12.93;100.00;101402.88;5017255;28;20096;-72
2022/10/02 06:28:34;;;;;;;33.55;6.70;;;;;;;12.97;100.00;101405.16;5034201;28;20239;-73
2022/10/02 06:31:12;;;;;;;27.98;6.90;;;;;;;12.96;100.00;101408.94;5011672;28;20073;-73
2022/10/02 06:33:38;;;;;;;34.55;7.10;;;;;;;12.96;100.00;101398.91;5033497;28;20033;-73
2022/10/02 06:36:03;;;;;;;32.97;7.00;;;;;;;12.97;100.00;101403.28;5023813;28;20080;-73
2022/10/02 06:38:56;;;;;;;28.35;6.65;;;;;;;13.01;100.00;101404.47;5015205;28;20026;-74
2022/10/02 06:42:01;;;;;;;32.17;8.07;;;;;;;12.99;100.00;101414.75;5015168;28;20041;-75
2022/10/02 06:44:41;;;;;;;33.72;6.97;;;;;;;13.00;100.00;101413.69;5015477;28;20041;-73
2022/10/02 06:47:19;;;;;;;27.65;7.10;;;;;;;13.01;100.00;101415.34;5033103;28;20021;-76
2022/10/02 06:50:22;;;;;;;28.70;7.80;;;;;;;13.01;100.00;101423.47;5033252;28;20032;-74
2022/10/02 06:53:13;;;;;;;27.52;7.13;;;;;;;13.02;100.00;101432.50;5034538;28;20022;-73
2022/10/02 06:56:11;;;;;;;34.50;8.48;;;;;;;13.04;100.00;101438.50;5033143;28;20026;-75
2022/10/02 06:58:58;;;;;;;31.75;8.77;;;;;;;13.05;100.00;101442.91;5017934;28;20034;-73
2022/10/02 07:01:47;;;;;;;30.63;7.95;;;;;;;13.05;100.00;101437.47;5012666;28;20512;-72
2022/10/02 07:04:31;;;;;;;31.77;9.02;;;;;;;13.05;100.00;101454.59;5014554;28;20104;-71
2022/10/02 07:07:02;;;;;;;31.55;8.73;;;;;;;13.08;100.00;101453.31;5014223;28;20025;-70
2022/10/02 07:09:45;;;;;;;30.00;9.07;;;;;;;13.08;100.00;101456.03;5013267;28;20359;-73
2022/10/02 07:12:27;;;;;;;26.23;8.75;;;;;;;13.11;100.00;101450.13;5020883;28;20036;-72
2022/10/02 07:15:12;;;;;;;26.95;9.55;;;;;;;13.11;100.00;101458.28;5033580;28;20036;-70
2022/10/02 07:17:51;;;;;;;26.70;9.80;;;;;;;13.13;100.00;101458.88;5014223;28;20030;-70
2022/10/02 07:20:22;;;;;;;28.15;10.63;;;;;;;13.10;100.00;101449.31;5013933;28;20470;-71
2022/10/02 07:23:12;;;;;;;26.42;10.98;;;;;;;13.16;100.00;101452.16;5014014;28;20046;-73
2022/10/02 07:26:15;;;;;;;34.38;12.82;;;;;;;13.12;100.00;101454.53;5014677;28;20034;-74
2022/10/02 07:28:52;;;;;;;30.05;12.45;;;;;;;13.10;100.00;101452.03;5013645;28;20064;-70
2022/10/02 07:31:33;;;;;;;26.65;13.00;;;;;;;13.13;100.00;101456.16;5014179;28;20330;-73
2022/10/02 07:34:13;;;;;;;26.70;12.75;;;;;;;13.14;100.00;101454.28;5013722;28;20358;-70
2022/10/02 07:37:16;;;;;;;28.92;13.00;;;;;;;13.15;100.00;101459.50;5013094;28;20037;-73
2022/10/02 07:39:54;;;;;;;30.00;14.27;;;;;;;13.16;100.00;101461.16;5013576;28;20026;-71
2022/10/02 07:42:30;;;;;;;27.33;12.68;;;;;;;13.18;100.00;101461.75;5013981;28;20480;-72
2022/10/02 07:45:16;;;;;;;26.85;11.82;;;;;;;13.21;100.00;101465.91;5013642;28;20596;-72
2022/10/02 07:47:51;;;;;;;26.35;11.13;;;;;;;13.23;100.00;101463.81;5012237;28;20037;-78
2022/10/02 07:50:38;;;;;;;26.92;11.60;;;;;;;13.23;100.00;101474.66;5013216;28;20480;-73
2022/10/02 07:53:16;;;;;;;24.75;11.07;;;;;;;13.24;100.00;101471.72;5024997;28;20025;-74
2022/10/02 07:55:50;;;;;;;25.88;11.38;;;;;;;13.25;100.00;101478.78;5025146;28;20104;-74
2022/10/02 07:58:21;;;;;;;22.85;10.63;;;;;;;13.27;100.00;101471.25;5013544;28;20030;-72
2022/10/02 08:00:58;;;;;;;23.20;11.65;;;;;;;13.29;100.00;101477.28;5026451;28;20290;-71
2022/10/02 08:03:28;;;;;;;24.17;10.13;;;;;;;13.34;100.00;101486.69;5014081;28;20029;-71
2022/10/02 08:05:55;;;;;;;28.30;9.93;;;;;;;13.36;100.00;101490.00;5027404;28;20030;-73
2022/10/02 08:08:54;;;;;;;23.92;10.05;;;;;;;13.40;100.00;101489.31;5036956;28;20056;-71
2022/10/02 08:11:35;;;;;;;19.92;9.77;;;;;;;13.41;100.00;101492.88;5049237;28;20056;-71
2022/10/02 08:14:21;;;;;;;23.27;10.38;;;;;;;13.45;100.00;101494.06;5037361;28;20051;-73
2022/10/02 08:16:55;;;;;;;22.15;10.52;;;;;;;13.47;100.00;101497.41;5024685;28;20082;-73
2022/10/02 08:19:33;;;;;;;22.27;11.05;;;;;;;13.51;100.00;101504.03;5033456;28;20029;-72
2022/10/02 08:22:41;;;;;;;20.52;10.68;;;;;;;13.52;100.00;101511.13;5032821;28;20037;-73
2022/10/02 08:25:19;;;;;;;25.05;11.82;;;;;;;13.53;100.00;101512.81;5031951;28;20427;-76
2022/10/02 08:28:03;;;;;;;23.13;12.32;;;;;;;13.56;100.00;101517.78;5029817;28;20369;-73
2022/10/02 08:30:29;;;;;;;23.65;11.23;;;;;;;13.58;100.00;101521.09;5028421;28;20080;-73
2022/10/02 08:32:55;;;;;;;24.73;11.05;;;;;;;13.62;100.00;101519.59;5016673;28;20068;-76
2022/10/02 08:35:21;;;;;;;23.52;10.82;;;;;;;13.63;100.00;101518.53;5013355;28;20030;-75
2022/10/02 08:38:13;;;;;;;23.83;11.05;;;;;;;13.65;100.00;101521.03;5021242;28;20033;-76
2022/10/02 08:41:03;;;;;;;21.45;10.65;;;;;;;13.68;100.00;101528.72;5032628;28;20033;-75
2022/10/02 08:44:07;;;;;;;23.50;10.55;;;;;;;13.68;100.00;101534.16;5031592;28;20380;-75
2022/10/02 08:47:21;;;;;;;23.67;10.48;;;;;;;13.72;100.00;101540.78;5012845;28;20025;-78
2022/10/02 08:50:28;;;;;;;24.95;9.85;;;;;;;13.76;100.00;101546.63;5003470;28;20046;-73
2022/10/02 08:53:48;;;;;;;19.65;9.18;;;;;;;13.79;100.00;101540.72;5018788;28;20022;-75
2022/10/02 08:56:43;;;;;;;22.67;9.25;;;;;;;13.83;100.00;101542.75;5010254;28;20029;-75
2022/10/02 08:59:42;;;;;;;17.10;7.63;;;;;;;13.89;100.00;101541.00;5030409;28;20041;-72
2022/10/02 09:02:32;;;;;;;24.10;8.73;;;;;;;13.95;100.00;101556.41;5028921;28;20029;-76
2022/10/02 09:05:32;;;;;;;19.05;7.95;;;;;;;14.04;100.00;101556.06;5029826;28;20317;-74
2022/10/02 09:08:46;;;;;;;22.58;8.20;;;;;;;13.97;100.00;101551.56;5021642;28;20159;-77
2022/10/02 09:11:23;;;;;;;20.75;8.38;;;;;;;13.93;100.00;101563.94;5022751;28;20428;-75
2022/10/02 09:14:12;;;;;;;22.23;6.90;;;;;;;13.93;100.00;101566.66;5020760;28;20034;-74
2022/10/02 09:16:46;;;;;;;16.73;6.65;;;;;;;13.95;100.00;101564.56;5013589;28;20022;-77
2022/10/02 09:19:29;;;;;;;24.70;7.10;;;;;;;14.01;100.00;101562.81;5032498;28;20483;-75
2022/10/02 09:22:03;;;;;;;22.90;7.32;;;;;;;14.02;100.00;101558.19;5029334;28;20068;-75
2022/10/02 09:25:10;;;;;;;24.05;7.75;;;;;;;14.10;100.00;101558.72;5032523;28;20029;-72
2022/10/02 09:27:48;;;;;;;21.02;6.03;;;;;;;14.22;100.00;101561.47;5029909;28;20039;-73
2022/10/02 09:30:19;;;;;;;22.17;5.88;;;;;;;14.24;100.00;101562.06;5032363;28;20022;-73
2022/10/02 09:33:22;;;;;;;18.25;6.22;;;;;;;14.31;100.00;101567.41;5032213;28;20464;-74
2022/10/02 09:36:25;;;;;;;18.95;6.93;;;;;;;14.31;100.00;101570.97;5030774;28;20018;-73
2022/10/02 09:39:15;;;;;;;20.10;6.03;;;;;;;14.34;100.00;101567.78;5026134;28;20428;-74
2022/10/02 09:42:09;;;;;;;19.27;5.35;;;;;;;14.41;100.00;101577.75;5012284;28;20026;-74
2022/10/02 09:45:12;;;;;;;19.38;5.70;;;;;;;14.45;100.00;101584.38;5018993;28;20356;-74
2022/10/02 09:48:03;;;;;;;19.23;6.35;;;;;;;14.52;100.00;101577.78;5019534;28;20029;-74
2022/10/02 09:50:50;;;;;;;22.80;6.35;;;;;;;14.53;100.00;101579.41;5028986;28;20036;-76
2022/10/02 09:53:25;;;;;;;18.13;6.18;;;;;;;14.53;100.00;101584.88;5031668;28;20029;-75
2022/10/02 09:56:21;;;;;;;23.25;6.53;;;;;;;14.56;100.00;101583.56;5012617;28;20558;-74
2022/10/02 09:59:10;;;;;;;23.70;5.88;;;;;;;14.57;100.00;101585.25;5026967;28;20060;-73
2022/10/02 10:02:09;;;;;;;23.30;6.35;;;;;;;14.58;100.00;101603.22;5009802;28;20034;-73
2022/10/02 10:04:52;;;;;;;20.88;6.30;;;;;;;14.57;100.00;101590.69;5021530;28;20017;-73
2022/10/02 10:07:36;;;;;;;20.95;5.88;;;;;;;14.59;100.00;101588.56;5034327;28;20120;-72
2022/10/02 10:10:17;;;;;;;22.60;6.22;;;;;;;14.75;100.00;101588.97;5033092;28;20045;-72
2022/10/02 10:13:14;;;;;;;21.73;5.88;;;;;;;14.87;100.00;101595.25;5035477;28;20476;-73
2022/10/02 10:16:00;;;;;;;22.95;5.80;;;;;;;14.96;100.00;101593.00;5016333;28;20040;-73
2022/10/02 10:18:35;;;;;;;19.83;5.20;;;;;;;14.95;100.00;101599.53;5015540;28;20026;-73
2022/10/02 10:21:23;;;;;;;22.33;5.32;;;;;;;14.94;100.00;101603.31;5015130;28;20081;-73
2022/10/02 10:24:22;;;;;;;27.60;5.75;;;;;;;15.02;100.00;101606.53;5016647;28;20037;-73
2022/10/02 10:27:09;;;;;;;19.85;5.75;;;;;;;14.95;100.00;101607.72;5030288;28;20022;-73
2022/10/02 10:29:40;;;;;;;20.70;6.05;;;;;;;14.89;100.00;101606.75;5014944;28;20049;-73
2022/10/02 10:32:18;;;;;;;19.58;5.35;;;;;;;14.91;100.00;101626.41;5014855;28;20037;-71
2022/10/02 10:35:05;;;;;;;17.23;5.60;;;;;;;15.00;100.00;101626.91;5014656;28;20527;-72
2022/10/02 10:40:53;;;;;;;18.70;5.32;;;;;;;15.05;100.00;101649.69;5015638;28;20049;-72
2022/10/02 10:43:31;;;;;;;20.48;4.88;;;;;;;15.03;100.00;101645.50;5015137;28;20128;-72
2022/10/02 10:46:30;;;;;;;18.90;4.90;;;;;;;15.01;100.00;101650.38;5014577;28;20022;-72
2022/10/02 10:49:08;;;;;;;26.52;5.20;;;;;;;15.00;100.00;101651.44;5013409;28;20018;-71
2022/10/02 10:52:10;;;;;;;19.02;4.60;;;;;;;15.05;100.00;101660.56;5014570;28;20029;-71
2022/10/02 10:55:04;;;;;;;;;;;;;;;15.09;100.00;101654.66;5014954;28;20389;-70
2022/10/02 10:57:50;;;;;;;19.60;4.50;;;;;;;15.09;100.00;101649.19;5019641;28;19919;-71
2022/10/02 11:01:07;;;;;;;23.42;4.90;;;;;;;15.13;100.00;101648.50;5054410;28;20021;-71
2022/10/02 11:04:06;;;;;;;21.58;4.35;;;;;;;15.17;100.00;101651.56;5005093;28;20527;-70
2022/10/02 11:06:50;;;;;;;19.63;4.05;;;;;;;15.14;100.00;101646.59;5034118;28;20049;-71
2022/10/02 11:09:54;;;;;;;16.88;3.88;;;;;;;15.12;100.00;101633.19;5016289;28;20457;-71
2022/10/02 11:12:47;;;;;;;19.83;4.03;;;;;;;15.16;100.00;101644.47;5014554;28;20017;-71
2022/10/02 11:15:39;;;;;;;18.67;4.00;;;;;;;15.19;100.00;101644.81;5013883;28;20013;-70
2022/10/02 11:18:14;;;;;;;18.08;4.15;;;;;;;15.28;100.00;101650.75;5041154;28;20049;-69
2022/10/02 11:21:01;;;;;;;16.40;3.92;;;;;;;15.36;100.00;101647.66;5035569;28;20040;-71
2022/10/02 11:23:53;;;;;;;20.73;4.05;;;;;;;15.38;100.00;101648.28;5053845;28;20091;-71
2022/10/02 11:26:36;;;;;;;18.35;4.22;;;;;;;15.39;100.00;101658.09;5033730;28;20104;-71
2022/10/02 11:29:19;;;;;;;17.70;4.40;;;;;;;15.39;100.00;101662.72;5031890;28;20048;-72
2022/10/02 11:31:57;;;;;;;27.80;4.72;;;;;;;15.42;100.00;101668.53;5013069;28;20124;-73
2022/10/02 11:34:42;;;;;;;17.83;4.65;;;;;;;15.43;100.00;101661.19;5057702;28;20037;-73
2022/10/02 11:37:37;;;;;;;18.02;4.47;;;;;;;15.45;100.00;101664.50;5041544;28;20408;-73
2022/10/02 11:40:12;;;;;;;18.42;4.65;;;;;;;15.47;100.00;101664.25;5028944;28;20465;-71
2022/10/02 11:42:56;;;;;;;20.40;4.43;;;;;;;15.46;100.00;101674.34;5013536;28;20080;-76
2022/10/02 11:45:51;;;;;;;13.15;3.65;;;;;;;15.44;100.00;101683.84;5013272;28;20165;-72
2022/10/02 11:48:37;;;;;;;15.43;3.78;;;;;;;15.42;100.00;101668.53;5012554;28;20113;-72
2022/10/02 11:51:09;;;;;;;20.02;4.25;;;;;;;15.46;100.00;101676.22;5025645;28;20033;-73
2022/10/02 11:54:14;;;;;;;20.13;3.85;;;;;;;15.54;100.00;101676.72;5019025;28;20026;-73
2022/10/02 11:57:00;;;;;;;19.95;4.80;;;;;;;15.68;100.00;101677.28;5012426;28;20477;-73
2022/10/02 12:00:05;;;;;;;20.55;5.50;;;;;;;15.75;100.00;101669.81;5013960;28;20113;-74
2022/10/02 12:02:42;;;;;;;17.90;5.60;;;;;;;15.69;100.00;101669.94;5009693;28;20384;-72
2022/10/02 12:05:35;;;;;;;18.00;5.25;;;;;;;15.65;100.00;101674.22;5013249;28;20370;-74
2022/10/02 12:08:06;;;;;;;20.13;5.57;;;;;;;15.55;100.00;101674.81;5013492;28;20061;-73
2022/10/02 12:10:54;;;;;;;19.17;8.98;;;;;;;15.50;100.00;101678.25;5022525;28;20087;-72
2022/10/02 12:13:58;;;;;;;23.05;8.48;;;;;;;15.45;100.00;101680.03;5017169;28;20057;-72
2022/10/02 12:16:32;;;;;;;20.25;8.73;;;;;;;15.32;100.00;101695.56;5017070;28;20033;-71
2022/10/02 12:19:25;;;;;;;24.38;7.60;;;;;;;15.26;100.00;101693.78;5024214;28;20056;-75
2022/10/02 12:28:38;;;;;;;19.20;6.90;;;;;;;14.81;100.00;101697.00;5016186;28;20045;-75